Terminal Aerodrome Forecast
Issued by NWS

Home | Current Version | Previous Version | Graphics & Text | Print | Product List | Glossary On
Versions: 1 2 3 4 5 6 7 8 9 10 11 12 13 14 15 16 17 18 19 20 21 22 23 24
117
FTUS43 KABR 041043 AAC
TAFATY
TAF AMD
KATY 041043Z 0411/0506 26010KT 1SM -SN BR OVC030
     FM041200 30010KT P6SM SCT025 OVC040
     FM042100 27007KT P6SM SCT030 SCT150
     FM050200 21006KT P6SM BKN150=

USA.gov is the U.S. government's official web portal to all federal, state and local government web resources and services.